createdAt,value
2019-06-08T00:01:09.694Z,91.80
2019-06-08T00:03:40.988Z,91.70
2019-06-08T00:06:12.857Z,91.60
2019-06-08T00:08:44.202Z,91.50
2019-06-08T00:11:16.891Z,91.50
2019-06-08T00:13:48.753Z,91.40
2019-06-08T00:16:21.428Z,91.30
2019-06-08T00:18:52.431Z,91.20
2019-06-08T00:21:24.301Z,91.00
2019-06-08T00:23:55.783Z,90.90
2019-06-08T00:26:27.445Z,90.80
2019-06-08T00:28:58.902Z,90.80
2019-06-08T00:31:30.261Z,90.70
2019-06-08T00:34:01.895Z,90.70
2019-06-08T00:36:33.162Z,90.70
2019-06-08T00:39:05.420Z,90.50
2019-06-08T00:41:37.169Z,90.50
2019-06-08T00:44:09.135Z,90.20
2019-06-08T00:46:40.428Z,90.10
2019-06-08T00:49:11.590Z,90.00
2019-06-08T00:51:43.037Z,90.00
2019-06-08T00:54:14.641Z,89.70
2019-06-08T00:56:46.509Z,88.90
2019-06-08T00:59:17.829Z,87.30
2019-06-08T01:01:49.184Z,83.60
2019-06-08T01:04:20.650Z,83.10
2019-06-08T01:06:52.524Z,81.80
2019-06-08T01:09:24.379Z,80.90
2019-06-08T01:11:54.722Z,80.50
2019-06-08T01:14:26.944Z,75.70
2019-06-08T01:16:58.935Z,76.00
2019-06-08T01:19:29.650Z,76.10
2019-06-08T01:22:01.534Z,74.30
2019-06-08T01:24:33.422Z,76.70
2019-06-08T01:27:05.158Z,74.30
2019-06-08T01:29:38.038Z,74.70
2019-06-08T01:32:09.579Z,73.90
2019-06-08T01:34:39.524Z,71.30
2019-06-08T01:37:11.183Z,66.40
2019-06-08T01:39:42.728Z,70.00
2019-06-08T01:42:12.774Z,70.70
2019-06-08T01:44:44.119Z,64.30
2019-06-08T01:47:15.669Z,66.90
2019-06-08T01:49:45.892Z,65.20
2019-06-08T01:52:16.842Z,62.80
2019-06-08T01:54:48.101Z,66.90
2019-06-08T01:57:19.709Z,67.00
2019-06-08T01:59:51.482Z,64.70
2019-06-08T02:02:23.810Z,65.70
2019-06-08T02:04:55.292Z,66.50
2019-06-08T02:07:26.355Z,63.60
2019-06-08T02:09:57.784Z,60.30
2019-06-08T02:12:28.791Z,65.50
2019-06-08T02:18:39.807Z,65.80
2019-06-08T02:24:40.539Z,66.10
2019-06-08T02:27:11.479Z,65.00
2019-06-08T02:29:42.345Z,61.60
2019-06-08T02:32:13.415Z,65.00
2019-06-08T02:34:44.375Z,64.30
2019-06-08T02:37:15.207Z,63.20
2019-06-08T02:39:46.054Z,61.20
2019-06-08T02:42:17.000Z,62.00
2019-06-08T02:44:47.839Z,62.50
2019-06-08T02:47:18.671Z,58.70
2019-06-08T02:49:49.524Z,61.20
2019-06-08T02:52:21.066Z,55.60
2019-06-08T02:54:52.723Z,60.70
2019-06-08T02:57:25.101Z,58.70
2019-06-08T02:59:57.215Z,56.30
2019-06-08T03:02:31.605Z,59.00
2019-06-08T03:05:04.348Z,58.00
2019-06-08T03:07:39.143Z,58.90
2019-06-08T03:10:10.325Z,58.70
2019-06-08T03:12:42.435Z,57.20
2019-06-08T03:15:14.796Z,58.60
2019-06-08T03:17:45.630Z,56.80
2019-06-08T03:20:16.562Z,58.80
2019-06-08T03:22:47.385Z,58.80
2019-06-08T03:25:18.249Z,59.10
2019-06-08T03:27:49.083Z,58.30
2019-06-08T03:30:20.138Z,58.80
2019-06-08T03:32:56.511Z,51.10
2019-06-08T03:35:23.301Z,57.90
2019-06-08T03:37:54.151Z,58.80
2019-06-08T03:40:25.102Z,57.80
2019-06-08T03:42:57.543Z,56.30
2019-06-08T03:45:28.153Z,57.50
2019-06-08T03:47:58.990Z,56.10
2019-06-08T03:50:29.818Z,57.70
2019-06-08T03:53:00.653Z,59.00
2019-06-08T03:55:31.498Z,57.60
2019-06-08T03:58:02.347Z,57.50
2019-06-08T04:00:33.287Z,58.60
2019-06-08T04:03:04.137Z,58.80
2019-06-08T04:05:37.933Z,58.20
2019-06-08T04:08:09.639Z,58.30
2019-06-08T04:10:42.030Z,59.70
2019-06-08T04:13:12.669Z,59.80
2019-06-08T04:15:44.680Z,62.20
2019-06-08T04:18:15.705Z,63.60
2019-06-08T04:20:48.549Z,63.60
2019-06-08T04:23:18.753Z,61.80
2019-06-08T04:25:50.572Z,62.00
2019-06-08T04:28:21.793Z,62.80
2019-06-08T04:30:52.716Z,63.60
2019-06-08T04:33:23.571Z,63.40
2019-06-08T04:35:54.409Z,63.10
2019-06-08T04:38:25.264Z,63.40
2019-06-08T04:40:56.090Z,63.90
2019-06-08T04:43:27.159Z,63.80
2019-06-08T04:45:57.999Z,64.70
2019-06-08T04:48:28.838Z,63.20
2019-06-08T04:50:59.689Z,64.80
2019-06-08T04:53:30.543Z,64.30
2019-06-08T04:56:01.387Z,65.00
2019-06-08T04:58:32.234Z,63.00
2019-06-08T05:01:03.071Z,63.50
2019-06-08T05:03:33.918Z,64.50
2019-06-08T05:06:04.740Z,62.90
2019-06-08T05:08:35.587Z,63.60
2019-06-08T05:11:06.519Z,63.80
2019-06-08T05:13:39.041Z,62.00
2019-06-08T05:16:09.581Z,64.00
2019-06-08T05:18:41.243Z,63.50
2019-06-08T05:21:12.265Z,62.80
2019-06-08T05:23:43.396Z,63.30
2019-06-08T05:26:14.350Z,64.70
2019-06-08T05:28:45.267Z,63.70
2019-06-08T05:31:16.156Z,63.80
2019-06-08T05:33:47.568Z,63.50
2019-06-08T05:39:47.763Z,63.80
2019-06-08T05:42:18.683Z,63.50
2019-06-08T05:44:50.312Z,63.30
2019-06-08T05:47:21.349Z,63.60
2019-06-08T05:56:59.994Z,63.70
2019-06-08T06:09:55.926Z,63.80
2019-06-08T06:12:26.763Z,63.10
2019-06-08T06:14:57.730Z,62.60
2019-06-08T06:17:28.750Z,62.60
2019-06-08T06:19:59.839Z,62.50
2019-06-08T06:22:30.691Z,63.90
2019-06-08T06:25:01.633Z,63.50
2019-06-08T06:27:32.742Z,62.80
2019-06-08T06:30:03.625Z,64.10
2019-06-08T06:32:34.625Z,63.50
2019-06-08T06:35:07.098Z,62.80
2019-06-08T06:37:38.125Z,62.90
2019-06-08T06:40:10.323Z,63.40
2019-06-08T06:42:42.064Z,63.50
2019-06-08T06:45:13.750Z,63.60
2019-06-08T06:47:44.158Z,63.30
2019-06-08T06:50:15.430Z,60.80
2019-06-08T06:52:46.662Z,63.00
2019-06-08T06:55:17.920Z,62.90
2019-06-08T06:57:49.273Z,61.70
2019-06-08T07:00:22.667Z,62.70
2019-06-08T07:02:53.926Z,62.40
2019-06-08T07:05:25.059Z,63.90
2019-06-08T07:07:56.187Z,62.60
2019-06-08T07:10:27.487Z,61.90
2019-06-08T07:12:58.495Z,62.30
2019-06-08T07:15:30.655Z,62.00
2019-06-08T07:18:01.714Z,62.70
2019-06-08T07:20:32.867Z,62.30
2019-06-08T07:23:03.699Z,62.40
2019-06-08T07:25:34.823Z,62.10
2019-06-08T07:28:05.681Z,62.40
2019-06-08T07:30:36.815Z,62.30
2019-06-08T07:33:08.061Z,60.60
2019-06-08T07:35:39.117Z,61.90
2019-06-08T07:38:10.273Z,61.40
2019-06-08T07:40:41.440Z,61.70
2019-06-08T07:43:12.380Z,61.50
2019-06-08T07:45:44.202Z,61.30
2019-06-08T07:48:15.452Z,61.40
2019-06-08T07:50:48.232Z,61.20
2019-06-08T07:53:18.944Z,61.40
2019-06-08T07:55:51.334Z,61.60
2019-06-08T07:58:22.505Z,60.50
2019-06-08T08:00:54.937Z,60.20
2019-06-08T08:03:26.327Z,60.10
2019-06-08T08:05:58.520Z,60.80
2019-06-08T08:08:29.827Z,60.30
2019-06-08T08:11:02.200Z,60.80
2019-06-08T08:13:33.410Z,59.80
2019-06-08T08:16:04.614Z,60.60
2019-06-08T08:18:35.640Z,61.20
2019-06-08T08:21:18.864Z,61.20
2019-06-08T08:23:39.461Z,62.30
2019-06-08T08:26:10.646Z,61.60
2019-06-08T08:28:41.747Z,61.60
2019-06-08T08:31:15.406Z,60.80
2019-06-08T08:33:48.505Z,61.20
2019-06-08T08:36:21.043Z,61.00
2019-06-08T08:38:51.848Z,60.80
2019-06-08T08:41:23.037Z,61.90
2019-06-08T08:43:54.370Z,61.50
2019-06-08T08:46:25.229Z,61.70
2019-06-08T08:49:05.976Z,61.60
2019-06-08T08:51:28.609Z,60.00
2019-06-08T08:54:04.786Z,61.60
2019-06-08T08:56:31.765Z,60.20
2019-06-08T08:59:02.861Z,60.20
2019-06-08T09:01:33.844Z,60.70
2019-06-08T09:04:05.211Z,61.20
2019-06-08T09:06:38.044Z,61.80
2019-06-08T09:12:48.654Z,61.80
2019-06-08T09:15:19.715Z,61.30
2019-06-08T09:17:52.107Z,61.40
2019-06-08T09:20:23.129Z,61.80
2019-06-08T09:26:22.178Z,61.20
2019-06-08T09:28:54.423Z,61.40
2019-06-08T09:31:28.188Z,61.20
2019-06-08T09:34:07.510Z,61.20
2019-06-08T09:36:29.729Z,61.50
2019-06-08T09:39:03.040Z,61.80
2019-06-08T09:41:32.763Z,61.60
2019-06-08T09:44:05.624Z,61.90
2019-06-08T09:46:38.365Z,61.50
2019-06-08T09:49:11.695Z,61.50
2019-06-08T09:51:40.204Z,61.20
2019-06-08T09:54:12.804Z,61.40
2019-06-08T09:56:43.443Z,61.70
2019-06-08T09:59:15.588Z,61.30
2019-06-08T10:01:46.635Z,61.30
2019-06-08T10:04:17.456Z,61.70
2019-06-08T10:06:48.327Z,61.70
2019-06-08T10:09:19.553Z,61.60
2019-06-08T10:11:50.405Z,61.90
2019-06-08T10:14:21.245Z,61.50
2019-06-08T10:16:52.122Z,61.60
2019-06-08T10:19:23.040Z,61.50
2019-06-08T10:21:54.813Z,61.80
2019-06-08T10:24:25.780Z,61.80
2019-06-08T10:26:57.188Z,62.10
2019-06-08T10:29:28.123Z,62.30
2019-06-08T10:31:59.402Z,62.30
2019-06-08T10:34:30.298Z,62.20
2019-06-08T10:37:06.428Z,62.30
2019-06-08T10:39:33.441Z,62.60
2019-06-08T10:42:05.263Z,62.70
2019-06-08T10:44:38.235Z,62.70
2019-06-08T10:47:11.533Z,62.60
2019-06-08T10:49:41.020Z,62.70
2019-06-08T10:52:12.283Z,62.90
2019-06-08T10:54:43.429Z,63.20
2019-06-08T10:57:14.281Z,63.60
2019-06-08T10:59:45.191Z,63.70
2019-06-08T11:02:18.655Z,63.90
2019-06-08T11:04:48.369Z,64.10
2019-06-08T11:07:19.346Z,64.20
2019-06-08T11:09:50.734Z,64.40
2019-06-08T11:12:21.843Z,64.60
2019-06-08T11:14:52.699Z,64.50
2019-06-08T11:17:23.511Z,64.50
2019-06-08T11:19:54.370Z,64.50
2019-06-08T11:22:27.749Z,64.70
2019-06-08T11:24:58.855Z,64.70
2019-06-08T11:27:29.568Z,64.70
2019-06-08T11:30:01.741Z,64.60
2019-06-08T11:32:32.602Z,64.80
2019-06-08T11:35:04.078Z,65.20
2019-06-08T11:37:35.008Z,65.40
2019-06-08T11:40:11.003Z,65.80
2019-06-08T11:42:40.284Z,65.80
2019-06-08T11:45:12.990Z,66.70
2019-06-08T11:47:44.143Z,66.10
2019-06-08T11:50:18.147Z,66.50
2019-06-08T11:52:49.281Z,67.00
2019-06-08T11:55:19.996Z,67.20
2019-06-08T11:57:50.886Z,67.80
2019-06-08T12:00:28.366Z,68.20
2019-06-08T12:02:58.084Z,68.60
2019-06-08T12:05:28.445Z,68.80
2019-06-08T12:07:59.282Z,69.00
2019-06-08T12:10:30.179Z,69.00
2019-06-08T12:13:01.080Z,69.50
2019-06-08T12:15:32.053Z,69.90
2019-06-08T12:18:03.432Z,70.20
2019-06-08T12:20:34.357Z,70.60
2019-06-08T12:23:05.924Z,70.80
2019-06-08T12:28:08.429Z,70.40
2019-06-08T12:30:39.431Z,71.30
2019-06-08T12:33:12.409Z,71.40
2019-06-08T12:35:42.664Z,71.20
2019-06-08T12:38:14.280Z,71.50
2019-06-08T12:40:45.155Z,71.60
2019-06-08T12:43:18.450Z,71.90
2019-06-08T12:45:48.200Z,72.00
2019-06-08T12:48:23.473Z,72.00
2019-06-08T12:50:52.756Z,72.60
2019-06-08T12:53:24.506Z,72.90
2019-06-08T12:55:57.725Z,73.20
2019-06-08T12:58:28.360Z,74.00
2019-06-08T13:00:59.875Z,74.00
2019-06-08T13:03:31.040Z,74.10
2019-06-08T13:06:02.400Z,74.00
2019-06-08T13:08:34.041Z,74.50
2019-06-08T13:11:07.739Z,74.60
2019-06-08T13:13:38.578Z,74.70
2019-06-08T13:16:10.506Z,74.60
2019-06-08T13:18:40.936Z,74.80
2019-06-08T13:21:23.054Z,75.70
2019-06-08T13:23:44.999Z,74.60
2019-06-08T13:26:21.596Z,74.60
2019-06-08T13:28:49.361Z,74.80
2019-06-08T13:31:24.139Z,74.80
2019-06-08T13:33:54.094Z,74.90
2019-06-08T13:36:27.205Z,75.30
2019-06-08T13:38:58.047Z,75.20
2019-06-08T13:41:30.060Z,74.90
2019-06-08T13:44:01.841Z,74.70
2019-06-08T13:46:33.465Z,74.80
2019-06-08T13:49:05.384Z,74.50
2019-06-08T13:51:38.421Z,75.00
2019-06-08T13:54:10.488Z,74.80
2019-06-08T13:56:40.762Z,75.00
2019-06-08T13:59:13.622Z,76.00
2019-06-08T14:01:47.810Z,75.20
2019-06-08T14:04:20.696Z,75.50
2019-06-08T14:06:52.045Z,75.70
2019-06-08T14:09:24.999Z,75.70
2019-06-08T14:11:57.790Z,75.80
2019-06-08T14:14:29.467Z,75.80
2019-06-08T14:17:00.872Z,76.20
2019-06-08T14:19:32.732Z,76.30
2019-06-08T14:22:04.583Z,76.50
2019-06-08T14:24:37.760Z,76.10
2019-06-08T14:27:09.339Z,76.50
2019-06-08T14:29:40.866Z,76.60
2019-06-08T14:32:12.550Z,76.80
2019-06-08T14:34:44.309Z,77.00
2019-06-08T14:37:15.512Z,76.90
2019-06-08T14:39:48.745Z,76.90
2019-06-08T14:42:25.949Z,77.90
2019-06-08T14:44:53.190Z,77.30
2019-06-08T14:47:27.386Z,77.20
2019-06-08T14:49:58.487Z,77.20
2019-06-08T14:52:31.031Z,78.00
2019-06-08T14:55:02.795Z,77.40
2019-06-08T14:57:34.231Z,77.80
2019-06-08T15:00:09.601Z,78.10
2019-06-08T15:02:40.542Z,78.50
2019-06-08T15:05:11.722Z,78.50
2019-06-08T15:07:43.320Z,78.70
2019-06-08T15:10:18.031Z,78.70
2019-06-08T15:12:48.917Z,78.90
2019-06-08T15:15:21.602Z,79.20
2019-06-08T15:17:53.018Z,79.10
2019-06-08T15:20:24.672Z,79.50
2019-06-08T15:22:57.942Z,79.60
2019-06-08T15:25:31.130Z,79.80
2019-06-08T15:28:02.414Z,79.70
2019-06-08T15:30:33.646Z,79.80
2019-06-08T15:33:05.080Z,79.90
2019-06-08T15:35:37.724Z,79.80
2019-06-08T15:38:09.860Z,79.80
2019-06-08T15:40:41.521Z,80.00
2019-06-08T15:43:12.969Z,80.10
2019-06-08T15:45:44.642Z,80.30
2019-06-08T15:48:20.187Z,80.50
2019-06-08T15:50:49.428Z,81.20
2019-06-08T15:53:19.820Z,80.70
2019-06-08T15:55:51.654Z,82.20
2019-06-08T15:58:23.419Z,81.40
2019-06-08T16:00:55.485Z,81.30
2019-06-08T16:03:27.426Z,81.10
2019-06-08T16:05:58.602Z,80.90
2019-06-08T16:08:30.248Z,80.90
2019-06-08T16:11:02.121Z,80.80
2019-06-08T16:13:33.177Z,80.90
2019-06-08T16:16:04.934Z,81.00
2019-06-08T16:18:36.378Z,81.00
2019-06-08T16:21:08.024Z,81.20
2019-06-08T16:23:39.422Z,81.00
2019-06-08T16:26:11.049Z,81.20
2019-06-08T16:28:42.263Z,81.00
2019-06-08T16:31:13.833Z,81.20
2019-06-08T16:33:45.359Z,80.90
2019-06-08T16:36:17.059Z,80.90
2019-06-08T16:38:52.097Z,80.80
2019-06-08T16:41:21.433Z,80.40
2019-06-08T16:43:52.287Z,80.60
2019-06-08T16:46:23.621Z,80.00
2019-06-08T16:48:55.236Z,79.80
2019-06-08T16:51:27.264Z,79.90
2019-06-08T16:53:57.286Z,79.70
2019-06-08T16:56:30.063Z,80.70
2019-06-08T16:59:01.762Z,80.40
2019-06-08T17:01:34.744Z,79.30
2019-06-08T17:04:05.964Z,79.40
2019-06-08T17:06:37.390Z,79.30
2019-06-08T17:09:09.712Z,80.10
2019-06-08T17:11:41.041Z,80.40
2019-06-08T17:14:12.383Z,79.60
2019-06-08T17:16:44.087Z,79.40
2019-06-08T17:19:15.523Z,79.60
2019-06-08T17:21:47.295Z,79.60
2019-06-08T17:24:18.496Z,79.60
2019-06-08T17:26:50.094Z,79.50
2019-06-08T17:29:21.226Z,79.60
2019-06-08T17:31:52.464Z,80.10
2019-06-08T17:34:24.131Z,79.80
2019-06-08T17:36:55.506Z,80.00
2019-06-08T17:39:29.394Z,80.10
2019-06-08T17:41:59.850Z,80.50
2019-06-08T17:44:32.133Z,80.00
2019-06-08T17:47:03.821Z,80.20
2019-06-08T17:49:37.110Z,80.30
2019-06-08T17:52:08.621Z,80.80
2019-06-08T17:54:41.074Z,80.40
2019-06-08T17:57:12.398Z,80.40
2019-06-08T17:59:44.017Z,80.10
2019-06-08T18:02:25.432Z,80.20
2019-06-08T18:04:48.637Z,80.40
2019-06-08T18:07:19.796Z,80.90
2019-06-08T18:09:51.543Z,80.60
2019-06-08T18:12:22.555Z,80.80
2019-06-08T18:14:54.124Z,80.90
2019-06-08T18:17:27.737Z,80.60
2019-06-08T18:19:58.275Z,80.50
2019-06-08T18:22:30.344Z,80.50
2019-06-08T18:25:00.483Z,80.20
2019-06-08T18:27:32.627Z,81.00
2019-06-08T18:30:08.196Z,80.60
2019-06-08T18:32:37.906Z,82.10
2019-06-08T18:35:09.629Z,80.70
2019-06-08T18:37:42.266Z,80.50
2019-06-08T18:40:17.725Z,80.20
2019-06-08T18:42:48.971Z,80.40
2019-06-08T18:45:20.875Z,80.20
2019-06-08T18:47:52.642Z,79.80
2019-06-08T18:50:23.862Z,80.00
2019-06-08T18:52:57.848Z,80.20
2019-06-08T18:55:28.024Z,80.30
2019-06-08T18:57:59.569Z,80.50
2019-06-08T19:00:33.278Z,80.50
2019-06-08T19:03:06.993Z,80.80
2019-06-08T19:05:42.588Z,81.10
2019-06-08T19:08:13.997Z,81.00
2019-06-08T19:10:46.140Z,81.40
2019-06-08T19:13:18.531Z,81.60
2019-06-08T19:15:52.861Z,81.60
2019-06-08T19:18:23.267Z,81.90
2019-06-08T19:20:57.521Z,82.10
2019-06-08T19:23:28.076Z,82.20
2019-06-08T19:26:00.476Z,82.40
2019-06-08T19:28:36.341Z,82.70
2019-06-08T19:31:07.840Z,82.90
2019-06-08T19:33:38.945Z,83.10
2019-06-08T19:36:10.814Z,83.10
2019-06-08T19:38:42.721Z,83.40
2019-06-08T19:41:14.120Z,83.60
2019-06-08T19:43:48.518Z,83.60
2019-06-08T19:46:18.264Z,83.60
2019-06-08T19:48:54.301Z,83.70
2019-06-08T19:51:22.610Z,83.90
2019-06-08T19:53:54.982Z,83.90
2019-06-08T19:56:28.217Z,84.20
2019-06-08T19:59:04.652Z,84.20
2019-06-08T20:01:32.408Z,84.00
2019-06-08T20:04:04.058Z,84.00
2019-06-08T20:06:37.224Z,84.30
2019-06-08T20:09:10.509Z,84.40
2019-06-08T20:11:46.193Z,85.10
2019-06-08T20:14:14.876Z,85.30
2019-06-08T20:16:48.120Z,85.40
2019-06-08T20:19:19.213Z,85.40
2019-06-08T20:21:51.538Z,85.40
2019-06-08T20:24:22.927Z,85.60
2019-06-08T20:26:54.815Z,85.50
2019-06-08T20:29:28.285Z,85.60
2019-06-08T20:31:59.674Z,85.80
2019-06-08T20:34:31.306Z,85.80
2019-06-08T20:37:03.132Z,86.10
2019-06-08T20:39:34.386Z,86.30
2019-06-08T20:42:10.972Z,86.40
2019-06-08T20:44:38.965Z,86.40
2019-06-08T20:47:10.313Z,85.90
2019-06-08T20:49:42.484Z,86.80
2019-06-08T20:52:12.615Z,86.30
2019-06-08T20:54:44.623Z,87.30
2019-06-08T20:57:17.044Z,86.60
2019-06-08T20:59:50.644Z,86.80
2019-06-08T21:02:22.213Z,86.80
2019-06-08T21:04:54.919Z,86.70
2019-06-08T21:07:27.987Z,86.60
2019-06-08T21:09:58.909Z,86.70
2019-06-08T21:12:29.728Z,86.90
2019-06-08T21:15:01.414Z,87.10
2019-06-08T21:17:33.160Z,86.90
2019-06-08T21:20:04.119Z,87.20
2019-06-08T21:22:35.111Z,87.00
2019-06-08T21:25:08.603Z,87.00
2019-06-08T21:27:40.411Z,87.60
2019-06-08T21:30:20.643Z,87.30
2019-06-08T21:32:44.649Z,87.40
2019-06-08T21:35:18.195Z,87.60
2019-06-08T21:37:52.539Z,87.70
2019-06-08T21:40:21.984Z,87.80
2019-06-08T21:42:55.260Z,87.90
2019-06-08T21:45:27.590Z,88.10
2019-06-08T21:48:00.487Z,86.90
2019-06-08T21:50:32.138Z,86.60
2019-06-08T21:53:03.639Z,86.60
2019-06-08T21:55:37.581Z,88.10
2019-06-08T21:58:08.384Z,87.30
2019-06-08T22:00:43.385Z,87.10
2019-06-08T22:03:13.428Z,87.90
2019-06-08T22:05:47.173Z,88.30
2019-06-08T22:08:17.378Z,88.00
2019-06-08T22:10:48.501Z,88.60
2019-06-08T22:13:20.083Z,88.60
2019-06-08T22:15:53.169Z,87.30
2019-06-08T22:18:27.253Z,88.10
2019-06-08T22:20:59.418Z,86.80
2019-06-08T22:23:30.323Z,88.20
2019-06-08T22:26:01.300Z,87.80
2019-06-08T22:28:32.881Z,86.50
2019-06-08T22:31:04.138Z,86.70
2019-06-08T22:33:37.547Z,87.80
2019-06-08T22:36:09.118Z,89.20
2019-06-08T22:38:40.575Z,88.60
2019-06-08T22:41:12.171Z,89.00
2019-06-08T22:43:43.423Z,89.30
2019-06-08T22:46:17.647Z,89.60
2019-06-08T22:48:47.797Z,88.40
2019-06-08T22:51:19.096Z,88.50
2019-06-08T22:53:50.668Z,89.40
2019-06-08T22:56:22.040Z,89.30
2019-06-08T22:58:55.771Z,89.20
2019-06-08T23:01:27.915Z,88.70
2019-06-08T23:04:02.272Z,87.80
2019-06-08T23:06:32.083Z,88.80
2019-06-08T23:09:04.425Z,88.10
2019-06-08T23:11:37.602Z,87.90
2019-06-08T23:14:13.096Z,87.50
2019-06-08T23:16:41.830Z,87.30
2019-06-08T23:19:12.872Z,87.50
2019-06-08T23:21:44.197Z,87.30
2019-06-08T23:24:17.946Z,86.30
2019-06-08T23:26:48.243Z,85.80
2019-06-08T23:29:19.461Z,85.20
2019-06-08T23:31:50.518Z,84.40
2019-06-08T23:34:23.319Z,83.60
2019-06-08T23:37:01.974Z,83.20
2019-06-08T23:39:28.410Z,82.30
2019-06-08T23:41:59.626Z,81.50
2019-06-08T23:44:31.484Z,80.50
2019-06-08T23:47:04.128Z,80.80
2019-06-08T23:49:37.878Z,79.80
2019-06-08T23:52:10.496Z,79.30
2019-06-08T23:54:41.507Z,78.20
2019-06-08T23:57:11.743Z,77.30
2019-06-08T23:59:43.011Z,74.30
